sensor_id;sensor_type;location;lat;lon;timestamp;temperature;humidity
7518;DHT22;3800;48.922;9.444;2023-04-24T00:01:43;11.20;99.90
7518;DHT22;3800;48.922;9.444;2023-04-24T00:04:12;11.20;99.90
7518;DHT22;3800;48.922;9.444;2023-04-24T00:06:40;11.20;99.90
7518;DHT22;3800;48.922;9.444;2023-04-24T00:09:09;11.20;99.90
7518;DHT22;3800;48.922;9.444;2023-04-24T00:11:36;11.20;99.90
7518;DHT22;3800;48.922;9.444;2023-04-24T00:14:05;11.20;99.90
7518;DHT22;3800;48.922;9.444;2023-04-24T00:16:34;11.20;99.90
7518;DHT22;3800;48.922;9.444;2023-04-24T00:19:02;11.20;99.90
7518;DHT22;3800;48.922;9.444;2023-04-24T00:21:31;11.20;99.90
7518;DHT22;3800;48.922;9.444;2023-04-24T00:23:59;11.20;99.90
7518;DHT22;3800;48.922;9.444;2023-04-24T00:26:28;11.20;99.90
7518;DHT22;3800;48.922;9.444;2023-04-24T00:28:57;11.20;99.90
7518;DHT22;3800;48.922;9.444;2023-04-24T00:31:25;11.20;99.90
7518;DHT22;3800;48.922;9.444;2023-04-24T00:33:53;11.20;99.90
7518;DHT22;3800;48.922;9.444;2023-04-24T00:36:21;11.20;99.90
7518;DHT22;3800;48.922;9.444;2023-04-24T00:38:50;11.20;99.90
7518;DHT22;3800;48.922;9.444;2023-04-24T00:41:19;11.20;99.90
7518;DHT22;3800;48.922;9.444;2023-04-24T00:43:47;11.20;99.90
7518;DHT22;3800;48.922;9.444;2023-04-24T00:46:16;11.20;99.90
7518;DHT22;3800;48.922;9.444;2023-04-24T00:48:43;11.20;99.90
7518;DHT22;3800;48.922;9.444;2023-04-24T00:51:12;11.30;99.90
7518;DHT22;3800;48.922;9.444;2023-04-24T00:53:41;11.30;99.90
7518;DHT22;3800;48.922;9.444;2023-04-24T00:56:09;11.30;99.90
7518;DHT22;3800;48.922;9.444;2023-04-24T00:58:38;11.30;99.90
7518;DHT22;3800;48.922;9.444;2023-04-24T01:01:07;11.30;99.90
7518;DHT22;3800;48.922;9.444;2023-04-24T01:03:35;11.30;99.90
7518;DHT22;3800;48.922;9.444;2023-04-24T01:06:04;11.30;99.90
7518;DHT22;3800;48.922;9.444;2023-04-24T01:08:32;11.40;99.90
7518;DHT22;3800;48.922;9.444;2023-04-24T01:11:00;11.40;99.90
7518;DHT22;3800;48.922;9.444;2023-04-24T01:13:30;11.40;99.90
7518;DHT22;3800;48.922;9.444;2023-04-24T01:15:58;11.40;99.90
7518;DHT22;3800;48.922;9.444;2023-04-24T01:18:27;11.40;99.90
7518;DHT22;3800;48.922;9.444;2023-04-24T01:20:58;11.40;99.90
7518;DHT22;3800;48.922;9.444;2023-04-24T01:23:25;11.40;99.90
7518;DHT22;3800;48.922;9.444;2023-04-24T01:25:53;11.40;99.90
7518;DHT22;3800;48.922;9.444;2023-04-24T01:28:22;11.30;99.90
7518;DHT22;3800;48.922;9.444;2023-04-24T01:30:51;11.30;99.90
7518;DHT22;3800;48.922;9.444;2023-04-24T01:33:20;11.30;99.90
7518;DHT22;3800;48.922;9.444;2023-04-24T01:35:48;11.30;99.90
7518;DHT22;3800;48.922;9.444;2023-04-24T01:38:15;11.30;99.90
7518;DHT22;3800;48.922;9.444;2023-04-24T01:40:44;11.30;99.90
7518;DHT22;3800;48.922;9.444;2023-04-24T01:43:12;11.30;99.90
7518;DHT22;3800;48.922;9.444;2023-04-24T01:45:40;11.30;99.90
7518;DHT22;3800;48.922;9.444;2023-04-24T01:48:08;11.30;99.90
7518;DHT22;3800;48.922;9.444;2023-04-24T01:50:37;11.30;99.90
7518;DHT22;3800;48.922;9.444;2023-04-24T01:53:05;11.30;99.90
7518;DHT22;3800;48.922;9.444;2023-04-24T01:55:34;11.30;99.90
7518;DHT22;3800;48.922;9.444;2023-04-24T01:58:02;11.30;99.90
7518;DHT22;3800;48.922;9.444;2023-04-24T02:00:30;11.20;99.90
7518;DHT22;3800;48.922;9.444;2023-04-24T02:02:59;11.20;99.90
7518;DHT22;3800;48.922;9.444;2023-04-24T02:05:27;11.20;99.90
7518;DHT22;3800;48.922;9.444;2023-04-24T02:07:55;11.20;99.90
7518;DHT22;3800;48.922;9.444;2023-04-24T02:10:24;11.20;99.90
7518;DHT22;3800;48.922;9.444;2023-04-24T02:12:52;11.20;99.90
7518;DHT22;3800;48.922;9.444;2023-04-24T02:15:21;11.10;99.90
7518;DHT22;3800;48.922;9.444;2023-04-24T02:17:49;11.10;99.90
7518;DHT22;3800;48.922;9.444;2023-04-24T02:20:17;11.10;99.90
7518;DHT22;3800;48.922;9.444;2023-04-24T02:22:45;11.10;99.90
7518;DHT22;3800;48.922;9.444;2023-04-24T02:25:14;11.10;99.90
7518;DHT22;3800;48.922;9.444;2023-04-24T02:27:43;11.00;99.90
7518;DHT22;3800;48.922;9.444;2023-04-24T02:30:11;11.00;99.90
7518;DHT22;3800;48.922;9.444;2023-04-24T02:32:39;11.00;99.90
7518;DHT22;3800;48.922;9.444;2023-04-24T02:35:08;11.00;99.90
7518;DHT22;3800;48.922;9.444;2023-04-24T02:37:36;11.00;99.90
7518;DHT22;3800;48.922;9.444;2023-04-24T02:40:07;11.00;99.90
7518;DHT22;3800;48.922;9.444;2023-04-24T02:42:36;11.00;99.90
7518;DHT22;3800;48.922;9.444;2023-04-24T02:45:05;11.00;99.90
7518;DHT22;3800;48.922;9.444;2023-04-24T02:47:33;11.00;99.90
7518;DHT22;3800;48.922;9.444;2023-04-24T02:50:02;11.00;99.90
7518;DHT22;3800;48.922;9.444;2023-04-24T02:52:30;11.10;99.90
7518;DHT22;3800;48.922;9.444;2023-04-24T02:54:59;11.00;99.90
7518;DHT22;3800;48.922;9.444;2023-04-24T02:57:27;11.10;99.90
7518;DHT22;3800;48.922;9.444;2023-04-24T02:59:55;11.10;99.90
7518;DHT22;3800;48.922;9.444;2023-04-24T03:02:24;11.10;99.90
7518;DHT22;3800;48.922;9.444;2023-04-24T03:04:52;11.10;99.90
7518;DHT22;3800;48.922;9.444;2023-04-24T03:07:20;11.10;99.90
7518;DHT22;3800;48.922;9.444;2023-04-24T03:09:48;11.10;99.90
7518;DHT22;3800;48.922;9.444;2023-04-24T03:12:17;11.00;99.90
7518;DHT22;3800;48.922;9.444;2023-04-24T03:14:45;11.00;99.90
7518;DHT22;3800;48.922;9.444;2023-04-24T03:17:13;11.00;99.90
7518;DHT22;3800;48.922;9.444;2023-04-24T03:19:41;10.90;99.90
7518;DHT22;3800;48.922;9.444;2023-04-24T03:22:10;10.90;99.90
7518;DHT22;3800;48.922;9.444;2023-04-24T03:24:38;10.90;99.90
7518;DHT22;3800;48.922;9.444;2023-04-24T03:27:06;10.90;99.90
7518;DHT22;3800;48.922;9.444;2023-04-24T03:29:35;10.80;99.90
7518;DHT22;3800;48.922;9.444;2023-04-24T03:32:03;10.80;99.90
7518;DHT22;3800;48.922;9.444;2023-04-24T03:34:32;10.80;99.90
7518;DHT22;3800;48.922;9.444;2023-04-24T03:37:01;10.80;99.90
7518;DHT22;3800;48.922;9.444;2023-04-24T03:39:30;10.80;99.90
7518;DHT22;3800;48.922;9.444;2023-04-24T03:41:58;10.70;99.90
7518;DHT22;3800;48.922;9.444;2023-04-24T03:44:27;10.70;99.90
7518;DHT22;3800;48.922;9.444;2023-04-24T03:46:55;10.70;99.90
7518;DHT22;3800;48.922;9.444;2023-04-24T03:49:24;10.70;99.90
7518;DHT22;3800;48.922;9.444;2023-04-24T03:51:53;10.70;99.90
7518;DHT22;3800;48.922;9.444;2023-04-24T03:54:21;10.70;99.90
7518;DHT22;3800;48.922;9.444;2023-04-24T03:56:49;10.70;99.90
7518;DHT22;3800;48.922;9.444;2023-04-24T03:59:17;10.70;99.90
7518;DHT22;3800;48.922;9.444;2023-04-24T04:01:46;10.70;99.90
7518;DHT22;3800;48.922;9.444;2023-04-24T04:04:15;10.70;99.90
7518;DHT22;3800;48.922;9.444;2023-04-24T04:06:43;10.70;99.90
7518;DHT22;3800;48.922;9.444;2023-04-24T04:09:12;10.60;99.90
7518;DHT22;3800;48.922;9.444;2023-04-24T04:11:40;10.70;99.90
7518;DHT22;3800;48.922;9.444;2023-04-24T04:14:08;10.70;99.90
7518;DHT22;3800;48.922;9.444;2023-04-24T04:16:37;10.70;99.90
7518;DHT22;3800;48.922;9.444;2023-04-24T04:19:05;10.70;99.90
7518;DHT22;3800;48.922;9.444;2023-04-24T04:21:33;10.70;99.90
7518;DHT22;3800;48.922;9.444;2023-04-24T04:24:01;10.70;99.90
7518;DHT22;3800;48.922;9.444;2023-04-24T04:26:30;10.70;99.90
7518;DHT22;3800;48.922;9.444;2023-04-24T04:28:58;10.70;99.90
7518;DHT22;3800;48.922;9.444;2023-04-24T04:31:31;10.70;99.90
7518;DHT22;3800;48.922;9.444;2023-04-24T04:34:00;10.70;99.90
7518;DHT22;3800;48.922;9.444;2023-04-24T04:36:29;10.70;99.90
7518;DHT22;3800;48.922;9.444;2023-04-24T04:38:58;10.80;99.90
7518;DHT22;3800;48.922;9.444;2023-04-24T04:41:26;10.80;99.90
7518;DHT22;3800;48.922;9.444;2023-04-24T04:43:54;10.60;99.90
7518;DHT22;3800;48.922;9.444;2023-04-24T04:46:22;10.20;99.90
7518;DHT22;3800;48.922;9.444;2023-04-24T04:48:51;9.80;99.90
7518;DHT22;3800;48.922;9.444;2023-04-24T04:51:19;9.50;99.90
7518;DHT22;3800;48.922;9.444;2023-04-24T04:53:47;9.20;99.90
7518;DHT22;3800;48.922;9.444;2023-04-24T04:56:16;9.00;99.90
7518;DHT22;3800;48.922;9.444;2023-04-24T04:58:45;8.80;99.90
7518;DHT22;3800;48.922;9.444;2023-04-24T05:01:13;8.80;99.90
7518;DHT22;3800;48.922;9.444;2023-04-24T05:03:41;8.70;99.90
7518;DHT22;3800;48.922;9.444;2023-04-24T05:06:10;8.70;99.90
7518;DHT22;3800;48.922;9.444;2023-04-24T05:08:38;8.70;99.90
7518;DHT22;3800;48.922;9.444;2023-04-24T05:11:06;8.70;99.90
7518;DHT22;3800;48.922;9.444;2023-04-24T05:13:35;8.70;99.90
7518;DHT22;3800;48.922;9.444;2023-04-24T05:16:03;8.70;99.90
7518;DHT22;3800;48.922;9.444;2023-04-24T05:18:31;8.70;99.90
7518;DHT22;3800;48.922;9.444;2023-04-24T05:21:00;8.80;99.90
7518;DHT22;3800;48.922;9.444;2023-04-24T05:23:28;8.80;99.90
7518;DHT22;3800;48.922;9.444;2023-04-24T05:25:57;8.80;99.90
7518;DHT22;3800;48.922;9.444;2023-04-24T05:28:25;8.80;99.90
7518;DHT22;3800;48.922;9.444;2023-04-24T05:30:54;8.90;99.90
7518;DHT22;3800;48.922;9.444;2023-04-24T05:33:22;8.90;99.90
7518;DHT22;3800;48.922;9.444;2023-04-24T05:35:50;9.00;99.90
7518;DHT22;3800;48.922;9.444;2023-04-24T05:38:18;9.00;99.90
7518;DHT22;3800;48.922;9.444;2023-04-24T05:40:46;9.10;99.90
7518;DHT22;3800;48.922;9.444;2023-04-24T05:43:15;9.10;99.90
7518;DHT22;3800;48.922;9.444;2023-04-24T05:45:43;9.10;99.90
7518;DHT22;3800;48.922;9.444;2023-04-24T05:48:11;9.20;99.90
7518;DHT22;3800;48.922;9.444;2023-04-24T05:50:39;9.20;99.90
7518;DHT22;3800;48.922;9.444;2023-04-24T05:53:08;9.20;99.90
7518;DHT22;3800;48.922;9.444;2023-04-24T05:55:36;9.20;99.90
7518;DHT22;3800;48.922;9.444;2023-04-24T05:58:05;9.20;99.90
7518;DHT22;3800;48.922;9.444;2023-04-24T06:00:34;9.20;99.90
7518;DHT22;3800;48.922;9.444;2023-04-24T06:03:02;9.20;99.90
7518;DHT22;3800;48.922;9.444;2023-04-24T06:05:31;9.20;99.90
7518;DHT22;3800;48.922;9.444;2023-04-24T06:08:00;9.20;99.90
7518;DHT22;3800;48.922;9.444;2023-04-24T06:10:28;9.20;99.90
7518;DHT22;3800;48.922;9.444;2023-04-24T06:12:57;9.20;99.90
7518;DHT22;3800;48.922;9.444;2023-04-24T06:15:27;9.20;99.90
7518;DHT22;3800;48.922;9.444;2023-04-24T06:17:54;9.20;99.90
7518;DHT22;3800;48.922;9.444;2023-04-24T06:20:23;9.20;99.90
7518;DHT22;3800;48.922;9.444;2023-04-24T06:22:51;9.20;99.90
7518;DHT22;3800;48.922;9.444;2023-04-24T06:25:19;9.20;99.90
7518;DHT22;3800;48.922;9.444;2023-04-24T06:27:47;9.20;99.90
7518;DHT22;3800;48.922;9.444;2023-04-24T06:30:16;9.20;99.90
7518;DHT22;3800;48.922;9.444;2023-04-24T06:32:44;9.20;99.90
7518;DHT22;3800;48.922;9.444;2023-04-24T06:35:13;9.10;99.90
7518;DHT22;3800;48.922;9.444;2023-04-24T06:37:41;9.10;99.90
7518;DHT22;3800;48.922;9.444;2023-04-24T06:40:10;9.10;99.90
7518;DHT22;3800;48.922;9.444;2023-04-24T06:42:38;9.20;99.90
7518;DHT22;3800;48.922;9.444;2023-04-24T06:45:06;9.20;99.90
7518;DHT22;3800;48.922;9.444;2023-04-24T06:47:35;9.30;99.90
7518;DHT22;3800;48.922;9.444;2023-04-24T06:50:04;9.50;99.90
7518;DHT22;3800;48.922;9.444;2023-04-24T06:52:33;9.60;99.90
7518;DHT22;3800;48.922;9.444;2023-04-24T06:55:02;9.60;99.90
7518;DHT22;3800;48.922;9.444;2023-04-24T06:57:31;9.90;99.90
7518;DHT22;3800;48.922;9.444;2023-04-24T06:59:59;9.90;99.90
7518;DHT22;3800;48.922;9.444;2023-04-24T07:02:28;10.00;99.90
7518;DHT22;3800;48.922;9.444;2023-04-24T07:04:56;10.00;99.90
7518;DHT22;3800;48.922;9.444;2023-04-24T07:07:25;10.10;99.90
7518;DHT22;3800;48.922;9.444;2023-04-24T07:09:53;10.10;99.90
7518;DHT22;3800;48.922;9.444;2023-04-24T07:12:22;10.10;99.90
7518;DHT22;3800;48.922;9.444;2023-04-24T07:14:50;10.00;99.90
7518;DHT22;3800;48.922;9.444;2023-04-24T07:17:18;10.10;99.90
7518;DHT22;3800;48.922;9.444;2023-04-24T07:19:46;10.10;99.90
7518;DHT22;3800;48.922;9.444;2023-04-24T07:22:15;10.20;99.90
7518;DHT22;3800;48.922;9.444;2023-04-24T07:24:44;10.30;99.90
7518;DHT22;3800;48.922;9.444;2023-04-24T07:27:12;10.30;99.90
7518;DHT22;3800;48.922;9.444;2023-04-24T07:29:40;10.40;99.90
7518;DHT22;3800;48.922;9.444;2023-04-24T07:32:09;10.50;99.90
7518;DHT22;3800;48.922;9.444;2023-04-24T07:34:37;10.50;99.90
7518;DHT22;3800;48.922;9.444;2023-04-24T07:37:06;10.50;99.90
7518;DHT22;3800;48.922;9.444;2023-04-24T07:39:35;10.50;99.90
7518;DHT22;3800;48.922;9.444;2023-04-24T07:42:03;10.40;99.90
7518;DHT22;3800;48.922;9.444;2023-04-24T07:44:31;10.40;99.90
7518;DHT22;3800;48.922;9.444;2023-04-24T07:46:59;10.30;99.90
7518;DHT22;3800;48.922;9.444;2023-04-24T07:49:28;10.30;99.90
7518;DHT22;3800;48.922;9.444;2023-04-24T07:51:56;10.20;99.90
7518;DHT22;3800;48.922;9.444;2023-04-24T07:54:25;10.40;99.90
7518;DHT22;3800;48.922;9.444;2023-04-24T07:56:53;10.40;99.90
7518;DHT22;3800;48.922;9.444;2023-04-24T07:59:22;10.80;99.90
7518;DHT22;3800;48.922;9.444;2023-04-24T08:01:51;10.80;99.90
7518;DHT22;3800;48.922;9.444;2023-04-24T08:04:20;11.10;99.90
7518;DHT22;3800;48.922;9.444;2023-04-24T08:06:48;11.00;99.90
7518;DHT22;3800;48.922;9.444;2023-04-24T08:09:17;11.00;99.90
7518;DHT22;3800;48.922;9.444;2023-04-24T08:11:45;11.00;99.90
7518;DHT22;3800;48.922;9.444;2023-04-24T08:14:13;11.00;99.90
7518;DHT22;3800;48.922;9.444;2023-04-24T08:16:42;10.90;99.90
7518;DHT22;3800;48.922;9.444;2023-04-24T08:19:10;10.80;99.90
7518;DHT22;3800;48.922;9.444;2023-04-24T08:21:38;10.70;99.90
7518;DHT22;3800;48.922;9.444;2023-04-24T08:24:06;10.70;99.90
7518;DHT22;3800;48.922;9.444;2023-04-24T08:26:35;10.70;99.90
7518;DHT22;3800;48.922;9.444;2023-04-24T08:29:04;10.70;99.90
7518;DHT22;3800;48.922;9.444;2023-04-24T08:31:33;10.70;99.90
7518;DHT22;3800;48.922;9.444;2023-04-24T08:34:01;10.70;99.90
7518;DHT22;3800;48.922;9.444;2023-04-24T08:36:29;10.70;99.90
7518;DHT22;3800;48.922;9.444;2023-04-24T08:38:57;10.60;99.90
7518;DHT22;3800;48.922;9.444;2023-04-24T08:41:26;10.60;99.90
7518;DHT22;3800;48.922;9.444;2023-04-24T08:43:54;10.70;99.90
7518;DHT22;3800;48.922;9.444;2023-04-24T08:46:23;10.90;99.90
7518;DHT22;3800;48.922;9.444;2023-04-24T08:48:52;10.90;99.90
7518;DHT22;3800;48.922;9.444;2023-04-24T08:51:20;11.00;99.90
7518;DHT22;3800;48.922;9.444;2023-04-24T08:53:48;11.10;99.90
7518;DHT22;3800;48.922;9.444;2023-04-24T08:56:16;11.20;99.90
7518;DHT22;3800;48.922;9.444;2023-04-24T08:58:44;11.40;99.90
7518;DHT22;3800;48.922;9.444;2023-04-24T09:01:13;11.60;99.90
7518;DHT22;3800;48.922;9.444;2023-04-24T09:03:42;11.60;99.90
7518;DHT22;3800;48.922;9.444;2023-04-24T09:06:10;11.50;99.90
7518;DHT22;3800;48.922;9.444;2023-04-24T09:08:38;11.50;99.90
7518;DHT22;3800;48.922;9.444;2023-04-24T09:11:06;11.40;99.90
7518;DHT22;3800;48.922;9.444;2023-04-24T09:13:35;11.40;99.90
7518;DHT22;3800;48.922;9.444;2023-04-24T09:16:03;11.40;99.90
7518;DHT22;3800;48.922;9.444;2023-04-24T09:18:31;11.40;99.90
7518;DHT22;3800;48.922;9.444;2023-04-24T09:21:02;11.30;99.90
7518;DHT22;3800;48.922;9.444;2023-04-24T09:23:30;11.30;99.90
7518;DHT22;3800;48.922;9.444;2023-04-24T09:25:58;11.30;99.90
7518;DHT22;3800;48.922;9.444;2023-04-24T09:28:29;11.20;99.90
7518;DHT22;3800;48.922;9.444;2023-04-24T09:31:18;11.30;99.90
7518;DHT22;3800;48.922;9.444;2023-04-24T09:33:54;11.30;99.90
7518;DHT22;3800;48.922;9.444;2023-04-24T09:36:33;11.40;99.90
7518;DHT22;3800;48.922;9.444;2023-04-24T09:39:01;11.40;99.90
7518;DHT22;3800;48.922;9.444;2023-04-24T09:41:29;11.40;99.90
7518;DHT22;3800;48.922;9.444;2023-04-24T09:43:58;11.20;99.90
7518;DHT22;3800;48.922;9.444;2023-04-24T09:46:30;11.10;99.90
7518;DHT22;3800;48.922;9.444;2023-04-24T09:49:07;11.10;99.90
7518;DHT22;3800;48.922;9.444;2023-04-24T09:51:36;11.10;99.90
7518;DHT22;3800;48.922;9.444;2023-04-24T09:54:04;11.20;99.90
7518;DHT22;3800;48.922;9.444;2023-04-24T09:56:33;11.30;99.90
7518;DHT22;3800;48.922;9.444;2023-04-24T09:59:08;11.40;99.90
7518;DHT22;3800;48.922;9.444;2023-04-24T10:01:37;11.50;99.90
7518;DHT22;3800;48.922;9.444;2023-04-24T10:04:05;11.60;99.90
7518;DHT22;3800;48.922;9.444;2023-04-24T10:06:33;11.70;99.90
7518;DHT22;3800;48.922;9.444;2023-04-24T10:09:02;11.80;99.90
7518;DHT22;3800;48.922;9.444;2023-04-24T10:11:30;11.80;99.90
7518;DHT22;3800;48.922;9.444;2023-04-24T10:13:59;11.80;99.90
7518;DHT22;3800;48.922;9.444;2023-04-24T10:16:28;11.70;99.90
7518;DHT22;3800;48.922;9.444;2023-04-24T10:18:57;11.70;99.90
7518;DHT22;3800;48.922;9.444;2023-04-24T10:21:26;11.60;99.90
7518;DHT22;3800;48.922;9.444;2023-04-24T10:23:53;11.60;99.90
7518;DHT22;3800;48.922;9.444;2023-04-24T10:26:21;11.60;99.90
7518;DHT22;3800;48.922;9.444;2023-04-24T10:28:51;11.50;99.90
7518;DHT22;3800;48.922;9.444;2023-04-24T10:31:19;11.50;99.90
7518;DHT22;3800;48.922;9.444;2023-04-24T10:33:47;11.50;99.90
7518;DHT22;3800;48.922;9.444;2023-04-24T10:36:15;11.40;99.90
7518;DHT22;3800;48.922;9.444;2023-04-24T10:38:44;11.30;99.90
7518;DHT22;3800;48.922;9.444;2023-04-24T10:41:13;11.30;99.90
7518;DHT22;3800;48.922;9.444;2023-04-24T10:43:43;11.20;99.90
7518;DHT22;3800;48.922;9.444;2023-04-24T10:46:16;11.20;99.90
7518;DHT22;3800;48.922;9.444;2023-04-24T10:48:42;11.20;99.90
7518;DHT22;3800;48.922;9.444;2023-04-24T10:51:11;11.20;99.90
7518;DHT22;3800;48.922;9.444;2023-04-24T10:53:39;11.20;99.90
7518;DHT22;3800;48.922;9.444;2023-04-24T10:56:08;11.20;99.90
7518;DHT22;3800;48.922;9.444;2023-04-24T10:58:37;11.30;99.90
7518;DHT22;3800;48.922;9.444;2023-04-24T11:01:05;11.30;99.90
7518;DHT22;3800;48.922;9.444;2023-04-24T11:03:34;11.30;99.90
7518;DHT22;3800;48.922;9.444;2023-04-24T11:06:04;11.20;99.90
7518;DHT22;3800;48.922;9.444;2023-04-24T11:08:38;11.20;99.90
7518;DHT22;3800;48.922;9.444;2023-04-24T11:11:10;11.10;99.90
7518;DHT22;3800;48.922;9.444;2023-04-24T11:14:16;11.10;99.90
7518;DHT22;3800;48.922;9.444;2023-04-24T11:16:31;11.20;99.90
7518;DHT22;3800;48.922;9.444;2023-04-24T11:19:04;11.20;99.90
7518;DHT22;3800;48.922;9.444;2023-04-24T11:21:54;11.50;99.90
7518;DHT22;3800;48.922;9.444;2023-04-24T11:24:28;11.40;99.90
7518;DHT22;3800;48.922;9.444;2023-04-24T11:27:09;11.60;99.90
7518;DHT22;3800;48.922;9.444;2023-04-24T11:29:43;11.80;99.90
7518;DHT22;3800;48.922;9.444;2023-04-24T11:32:18;12.00;99.90
7518;DHT22;3800;48.922;9.444;2023-04-24T11:34:46;12.10;99.90
7518;DHT22;3800;48.922;9.444;2023-04-24T11:37:16;12.10;99.90
7518;DHT22;3800;48.922;9.444;2023-04-24T11:39:44;12.00;99.90
7518;DHT22;3800;48.922;9.444;2023-04-24T11:42:14;11.90;99.90
7518;DHT22;3800;48.922;9.444;2023-04-24T11:44:43;11.80;99.90
7518;DHT22;3800;48.922;9.444;2023-04-24T11:47:11;11.70;99.90
7518;DHT22;3800;48.922;9.444;2023-04-24T11:49:40;11.80;99.90
7518;DHT22;3800;48.922;9.444;2023-04-24T11:52:08;11.80;99.90
7518;DHT22;3800;48.922;9.444;2023-04-24T11:54:37;11.80;99.90
7518;DHT22;3800;48.922;9.444;2023-04-24T11:57:05;11.80;99.90
7518;DHT22;3800;48.922;9.444;2023-04-24T11:59:35;11.80;99.90
7518;DHT22;3800;48.922;9.444;2023-04-24T12:02:03;11.80;99.90
7518;DHT22;3800;48.922;9.444;2023-04-24T12:04:39;11.80;99.90
7518;DHT22;3800;48.922;9.444;2023-04-24T12:07:07;11.70;99.90
7518;DHT22;3800;48.922;9.444;2023-04-24T12:09:43;11.70;99.90
7518;DHT22;3800;48.922;9.444;2023-04-24T12:12:14;11.60;99.90
7518;DHT22;3800;48.922;9.444;2023-04-24T12:14:52;11.60;99.90
7518;DHT22;3800;48.922;9.444;2023-04-24T12:17:25;11.60;99.90
7518;DHT22;3800;48.922;9.444;2023-04-24T12:19:58;11.60;99.90
7518;DHT22;3800;48.922;9.444;2023-04-24T12:22:27;11.70;99.90
7518;DHT22;3800;48.922;9.444;2023-04-24T12:24:59;11.80;99.90
7518;DHT22;3800;48.922;9.444;2023-04-24T12:27:31;11.80;99.90
7518;DHT22;3800;48.922;9.444;2023-04-24T12:30:01;11.70;99.90
7518;DHT22;3800;48.922;9.444;2023-04-24T12:32:28;11.70;99.90
7518;DHT22;3800;48.922;9.444;2023-04-24T12:34:57;11.70;99.90
7518;DHT22;3800;48.922;9.444;2023-04-24T12:37:26;11.70;99.90
7518;DHT22;3800;48.922;9.444;2023-04-24T12:40:03;11.70;99.90
7518;DHT22;3800;48.922;9.444;2023-04-24T12:42:34;11.80;99.90
7518;DHT22;3800;48.922;9.444;2023-04-24T12:45:03;11.80;99.90
7518;DHT22;3800;48.922;9.444;2023-04-24T12:47:30;11.80;99.90
7518;DHT22;3800;48.922;9.444;2023-04-24T12:50:00;11.60;99.90
7518;DHT22;3800;48.922;9.444;2023-04-24T12:52:29;11.60;99.90
7518;DHT22;3800;48.922;9.444;2023-04-24T12:54:57;11.50;99.90
7518;DHT22;3800;48.922;9.444;2023-04-24T12:57:25;11.30;99.90
7518;DHT22;3800;48.922;9.444;2023-04-24T12:59:54;11.00;99.90
7518;DHT22;3800;48.922;9.444;2023-04-24T13:02:25;10.80;99.90
7518;DHT22;3800;48.922;9.444;2023-04-24T13:04:53;10.70;99.90
7518;DHT22;3800;48.922;9.444;2023-04-24T13:07:21;10.70;99.90
7518;DHT22;3800;48.922;9.444;2023-04-24T13:09:50;10.70;99.90
7518;DHT22;3800;48.922;9.444;2023-04-24T13:12:18;10.80;99.90
7518;DHT22;3800;48.922;9.444;2023-04-24T13:14:46;10.80;99.90
7518;DHT22;3800;48.922;9.444;2023-04-24T13:17:15;11.00;99.90
7518;DHT22;3800;48.922;9.444;2023-04-24T13:19:43;11.00;99.90
7518;DHT22;3800;48.922;9.444;2023-04-24T13:22:12;11.10;99.90
7518;DHT22;3800;48.922;9.444;2023-04-24T13:24:40;11.10;99.90
7518;DHT22;3800;48.922;9.444;2023-04-24T13:27:10;11.20;99.90
7518;DHT22;3800;48.922;9.444;2023-04-24T13:29:38;11.20;99.90
7518;DHT22;3800;48.922;9.444;2023-04-24T13:32:08;11.20;99.90
7518;DHT22;3800;48.922;9.444;2023-04-24T13:34:34;11.40;99.90
7518;DHT22;3800;48.922;9.444;2023-04-24T13:37:02;11.70;99.90
7518;DHT22;3800;48.922;9.444;2023-04-24T13:39:31;12.00;99.90
7518;DHT22;3800;48.922;9.444;2023-04-24T13:41:59;12.10;99.90
7518;DHT22;3800;48.922;9.444;2023-04-24T13:44:28;11.90;99.90
7518;DHT22;3800;48.922;9.444;2023-04-24T13:46:57;11.90;99.90
7518;DHT22;3800;48.922;9.444;2023-04-24T13:49:26;11.80;99.90
7518;DHT22;3800;48.922;9.444;2023-04-24T13:51:54;11.70;99.90
7518;DHT22;3800;48.922;9.444;2023-04-24T13:54:23;12.00;99.90
7518;DHT22;3800;48.922;9.444;2023-04-24T13:56:51;12.00;99.90
7518;DHT22;3800;48.922;9.444;2023-04-24T13:59:20;12.10;99.90
7518;DHT22;3800;48.922;9.444;2023-04-24T14:01:48;12.10;99.90
7518;DHT22;3800;48.922;9.444;2023-04-24T14:04:16;12.00;99.90
7518;DHT22;3800;48.922;9.444;2023-04-24T14:06:45;11.90;99.90
7518;DHT22;3800;48.922;9.444;2023-04-24T14:09:13;11.90;99.90
7518;DHT22;3800;48.922;9.444;2023-04-24T14:11:41;11.80;99.90
7518;DHT22;3800;48.922;9.444;2023-04-24T14:14:10;11.80;99.90
7518;DHT22;3800;48.922;9.444;2023-04-24T14:16:38;11.80;99.90
7518;DHT22;3800;48.922;9.444;2023-04-24T14:19:07;11.80;99.90
7518;DHT22;3800;48.922;9.444;2023-04-24T14:21:36;11.80;99.90
7518;DHT22;3800;48.922;9.444;2023-04-24T14:24:04;11.80;99.90
7518;DHT22;3800;48.922;9.444;2023-04-24T14:26:32;11.80;99.90
7518;DHT22;3800;48.922;9.444;2023-04-24T14:29:00;11.80;99.90
7518;DHT22;3800;48.922;9.444;2023-04-24T14:31:29;11.80;99.90
7518;DHT22;3800;48.922;9.444;2023-04-24T14:33:57;11.90;99.90
7518;DHT22;3800;48.922;9.444;2023-04-24T14:36:26;12.00;99.90
7518;DHT22;3800;48.922;9.444;2023-04-24T14:38:54;12.00;99.90
7518;DHT22;3800;48.922;9.444;2023-04-24T14:41:23;12.10;99.90
7518;DHT22;3800;48.922;9.444;2023-04-24T14:43:52;12.10;99.90
7518;DHT22;3800;48.922;9.444;2023-04-24T14:46:20;12.10;99.90
7518;DHT22;3800;48.922;9.444;2023-04-24T14:48:48;12.10;99.90
7518;DHT22;3800;48.922;9.444;2023-04-24T14:51:16;12.00;99.90
7518;DHT22;3800;48.922;9.444;2023-04-24T14:53:45;11.90;99.90
7518;DHT22;3800;48.922;9.444;2023-04-24T14:56:13;12.00;99.90
7518;DHT22;3800;48.922;9.444;2023-04-24T14:58:41;12.00;99.90
7518;DHT22;3800;48.922;9.444;2023-04-24T15:01:10;12.10;99.90
7518;DHT22;3800;48.922;9.444;2023-04-24T15:03:38;12.10;99.90
7518;DHT22;3800;48.922;9.444;2023-04-24T15:06:06;12.10;99.90
7518;DHT22;3800;48.922;9.444;2023-04-24T15:08:34;12.20;99.90
7518;DHT22;3800;48.922;9.444;2023-04-24T15:11:02;12.30;99.90
7518;DHT22;3800;48.922;9.444;2023-04-24T15:13:31;12.40;99.90
7518;DHT22;3800;48.922;9.444;2023-04-24T15:15:59;12.40;99.90
7518;DHT22;3800;48.922;9.444;2023-04-24T15:18:27;12.50;99.90
7518;DHT22;3800;48.922;9.444;2023-04-24T15:20:55;12.60;99.90
7518;DHT22;3800;48.922;9.444;2023-04-24T15:23:24;12.70;99.90
7518;DHT22;3800;48.922;9.444;2023-04-24T15:25:53;12.60;99.90
7518;DHT22;3800;48.922;9.444;2023-04-24T15:28:22;12.70;99.90
7518;DHT22;3800;48.922;9.444;2023-04-24T15:30:50;12.70;99.90
7518;DHT22;3800;48.922;9.444;2023-04-24T15:33:19;12.70;99.90
7518;DHT22;3800;48.922;9.444;2023-04-24T15:35:47;12.70;99.90
7518;DHT22;3800;48.922;9.444;2023-04-24T15:38:16;12.50;99.90
7518;DHT22;3800;48.922;9.444;2023-04-24T15:40:45;12.40;99.90
7518;DHT22;3800;48.922;9.444;2023-04-24T15:43:14;12.10;99.90
7518;DHT22;3800;48.922;9.444;2023-04-24T15:45:42;12.10;99.90
7518;DHT22;3800;48.922;9.444;2023-04-24T15:48:11;12.00;99.90
7518;DHT22;3800;48.922;9.444;2023-04-24T15:50:40;12.00;99.90
7518;DHT22;3800;48.922;9.444;2023-04-24T15:53:08;12.00;99.90
7518;DHT22;3800;48.922;9.444;2023-04-24T15:55:37;12.10;99.90
7518;DHT22;3800;48.922;9.444;2023-04-24T15:58:06;12.00;99.90
7518;DHT22;3800;48.922;9.444;2023-04-24T16:00:34;12.10;99.90
7518;DHT22;3800;48.922;9.444;2023-04-24T16:03:02;12.20;99.90
7518;DHT22;3800;48.922;9.444;2023-04-24T16:05:30;12.50;99.90
7518;DHT22;3800;48.922;9.444;2023-04-24T16:07:59;12.70;99.90
7518;DHT22;3800;48.922;9.444;2023-04-24T16:10:27;12.80;99.90
7518;DHT22;3800;48.922;9.444;2023-04-24T16:12:56;12.90;99.90
7518;DHT22;3800;48.922;9.444;2023-04-24T16:15:24;13.00;99.90